sensor_id;sensor_type;location;lat;lon;timestamp;temperature;humidity
29855;DHT22;16733;48.738;9.106;2022-11-28T00:01:29;5.80;99.90
29855;DHT22;16733;48.738;9.106;2022-11-28T00:03:56;5.80;99.90
29855;DHT22;16733;48.738;9.106;2022-11-28T00:06:22;5.80;99.90
29855;DHT22;16733;48.738;9.106;2022-11-28T00:08:48;5.80;99.90
29855;DHT22;16733;48.738;9.106;2022-11-28T00:11:15;5.80;99.90
29855;DHT22;16733;48.738;9.106;2022-11-28T00:13:41;5.80;99.90
29855;DHT22;16733;48.738;9.106;2022-11-28T00:16:08;5.80;99.90
29855;DHT22;16733;48.738;9.106;2022-11-28T00:18:34;5.80;99.90
29855;DHT22;16733;48.738;9.106;2022-11-28T00:21:03;5.80;99.90
29855;DHT22;16733;48.738;9.106;2022-11-28T00:23:29;5.80;99.90
29855;DHT22;16733;48.738;9.106;2022-11-28T00:26:05;5.80;99.90
29855;DHT22;16733;48.738;9.106;2022-11-28T00:28:31;5.80;99.90
29855;DHT22;16733;48.738;9.106;2022-11-28T00:30:56;5.80;99.90
29855;DHT22;16733;48.738;9.106;2022-11-28T00:33:22;5.80;99.90
29855;DHT22;16733;48.738;9.106;2022-11-28T00:35:48;5.80;99.90
29855;DHT22;16733;48.738;9.106;2022-11-28T00:38:14;5.80;99.90
29855;DHT22;16733;48.738;9.106;2022-11-28T00:40:40;5.80;99.90
29855;DHT22;16733;48.738;9.106;2022-11-28T00:43:05;5.90;99.90
29855;DHT22;16733;48.738;9.106;2022-11-28T00:45:31;5.90;99.90
29855;DHT22;16733;48.738;9.106;2022-11-28T00:47:57;6.00;99.90
29855;DHT22;16733;48.738;9.106;2022-11-28T00:50:22;6.00;99.90
29855;DHT22;16733;48.738;9.106;2022-11-28T00:52:48;6.00;99.90
29855;DHT22;16733;48.738;9.106;2022-11-28T00:55:14;6.00;99.90
29855;DHT22;16733;48.738;9.106;2022-11-28T00:57:40;6.00;99.90
29855;DHT22;16733;48.738;9.106;2022-11-28T01:00:06;6.00;99.90
29855;DHT22;16733;48.738;9.106;2022-11-28T01:02:32;6.00;99.90
29855;DHT22;16733;48.738;9.106;2022-11-28T01:04:59;6.10;99.90
29855;DHT22;16733;48.738;9.106;2022-11-28T01:07:24;6.10;99.90
29855;DHT22;16733;48.738;9.106;2022-11-28T01:09:55;6.10;99.90
29855;DHT22;16733;48.738;9.106;2022-11-28T01:12:21;6.10;99.90
29855;DHT22;16733;48.738;9.106;2022-11-28T01:14:46;6.10;99.90
29855;DHT22;16733;48.738;9.106;2022-11-28T01:17:12;6.10;99.90
29855;DHT22;16733;48.738;9.106;2022-11-28T01:19:37;6.20;99.90
29855;DHT22;16733;48.738;9.106;2022-11-28T01:22:03;6.20;99.90
29855;DHT22;16733;48.738;9.106;2022-11-28T01:24:31;6.10;99.90
29855;DHT22;16733;48.738;9.106;2022-11-28T01:26:57;6.10;99.90
29855;DHT22;16733;48.738;9.106;2022-11-28T01:29:22;6.10;99.90
29855;DHT22;16733;48.738;9.106;2022-11-28T01:31:48;6.10;99.90
29855;DHT22;16733;48.738;9.106;2022-11-28T01:34:14;6.10;99.90
29855;DHT22;16733;48.738;9.106;2022-11-28T01:36:39;6.10;99.90
29855;DHT22;16733;48.738;9.106;2022-11-28T01:39:05;6.00;99.90
29855;DHT22;16733;48.738;9.106;2022-11-28T01:41:31;6.00;99.90
29855;DHT22;16733;48.738;9.106;2022-11-28T01:44:07;6.00;99.90
29855;DHT22;16733;48.738;9.106;2022-11-28T01:46:50;5.90;99.90
29855;DHT22;16733;48.738;9.106;2022-11-28T01:49:19;5.90;99.90
29855;DHT22;16733;48.738;9.106;2022-11-28T01:52:03;5.90;99.90
29855;DHT22;16733;48.738;9.106;2022-11-28T01:54:30;5.90;99.90
29855;DHT22;16733;48.738;9.106;2022-11-28T01:57:03;5.90;99.90
29855;DHT22;16733;48.738;9.106;2022-11-28T01:59:34;5.90;99.90
29855;DHT22;16733;48.738;9.106;2022-11-28T02:02:05;5.80;99.90
29855;DHT22;16733;48.738;9.106;2022-11-28T02:04:33;5.80;99.90
29855;DHT22;16733;48.738;9.106;2022-11-28T02:06:58;5.80;99.90
29855;DHT22;16733;48.738;9.106;2022-11-28T02:09:24;5.80;99.90
29855;DHT22;16733;48.738;9.106;2022-11-28T02:35:00;5.70;99.90
29855;DHT22;16733;48.738;9.106;2022-11-28T02:43:16;5.70;99.90
29855;DHT22;16733;48.738;9.106;2022-11-28T02:48:40;5.60;99.90
29855;DHT22;16733;48.738;9.106;2022-11-28T02:53:44;5.60;99.90
29855;DHT22;16733;48.738;9.106;2022-11-28T02:56:11;5.50;99.90
29855;DHT22;16733;48.738;9.106;2022-11-28T02:58:37;5.50;99.90
29855;DHT22;16733;48.738;9.106;2022-11-28T03:01:03;5.50;99.90
29855;DHT22;16733;48.738;9.106;2022-11-28T03:17:49;5.40;99.90
29855;DHT22;16733;48.738;9.106;2022-11-28T03:23:35;5.40;99.90
29855;DHT22;16733;48.738;9.106;2022-11-28T03:26:31;5.40;99.90
29855;DHT22;16733;48.738;9.106;2022-11-28T03:31:59;5.40;99.90
29855;DHT22;16733;48.738;9.106;2022-11-28T03:34:37;5.50;99.90
29855;DHT22;16733;48.738;9.106;2022-11-28T03:37:07;5.50;99.90
29855;DHT22;16733;48.738;9.106;2022-11-28T03:39:38;5.50;99.90
29855;DHT22;16733;48.738;9.106;2022-11-28T03:42:18;5.50;99.90
29855;DHT22;16733;48.738;9.106;2022-11-28T03:44:53;5.50;99.90
29855;DHT22;16733;48.738;9.106;2022-11-28T03:47:25;5.50;99.90
29855;DHT22;16733;48.738;9.106;2022-11-28T03:49:53;5.60;99.90
29855;DHT22;16733;48.738;9.106;2022-11-28T03:52:28;5.60;99.90
29855;DHT22;16733;48.738;9.106;2022-11-28T03:55:00;5.50;99.90
29855;DHT22;16733;48.738;9.106;2022-11-28T04:00:08;5.60;99.90
29855;DHT22;16733;48.738;9.106;2022-11-28T04:10:57;5.60;99.90
29855;DHT22;16733;48.738;9.106;2022-11-28T04:13:20;5.60;99.90
29855;DHT22;16733;48.738;9.106;2022-11-28T04:15:52;5.60;99.90
29855;DHT22;16733;48.738;9.106;2022-11-28T04:21:23;5.70;99.90
29855;DHT22;16733;48.738;9.106;2022-11-28T04:23:54;5.70;99.90
29855;DHT22;16733;48.738;9.106;2022-11-28T04:26:26;5.70;99.90
29855;DHT22;16733;48.738;9.106;2022-11-28T04:28:54;5.70;99.90
29855;DHT22;16733;48.738;9.106;2022-11-28T04:31:21;5.80;99.90
29855;DHT22;16733;48.738;9.106;2022-11-28T04:33:52;5.80;99.90
29855;DHT22;16733;48.738;9.106;2022-11-28T04:36:22;5.80;99.90
29855;DHT22;16733;48.738;9.106;2022-11-28T04:38:50;5.90;99.90
29855;DHT22;16733;48.738;9.106;2022-11-28T04:41:32;5.90;99.90
29855;DHT22;16733;48.738;9.106;2022-11-28T04:44:12;6.00;99.90
29855;DHT22;16733;48.738;9.106;2022-11-28T04:46:43;6.00;99.90
29855;DHT22;16733;48.738;9.106;2022-11-28T04:49:11;6.00;99.90
29855;DHT22;16733;48.738;9.106;2022-11-28T04:52:01;6.10;99.90
29855;DHT22;16733;48.738;9.106;2022-11-28T04:57:14;6.10;99.90
29855;DHT22;16733;48.738;9.106;2022-11-28T04:59:42;6.10;99.90
29855;DHT22;16733;48.738;9.106;2022-11-28T05:02:09;6.10;99.90
29855;DHT22;16733;48.738;9.106;2022-11-28T05:04:37;6.20;99.90
29855;DHT22;16733;48.738;9.106;2022-11-28T05:07:05;6.20;99.90
29855;DHT22;16733;48.738;9.106;2022-11-28T05:09:30;6.20;99.90
29855;DHT22;16733;48.738;9.106;2022-11-28T05:11:56;6.20;99.90
29855;DHT22;16733;48.738;9.106;2022-11-28T05:14:22;6.20;99.90
29855;DHT22;16733;48.738;9.106;2022-11-28T05:16:48;6.20;99.90
29855;DHT22;16733;48.738;9.106;2022-11-28T05:19:14;6.20;99.90
29855;DHT22;16733;48.738;9.106;2022-11-28T05:21:40;6.10;99.90
29855;DHT22;16733;48.738;9.106;2022-11-28T05:24:06;6.10;99.90
29855;DHT22;16733;48.738;9.106;2022-11-28T05:26:32;6.10;99.90
29855;DHT22;16733;48.738;9.106;2022-11-28T05:29:00;6.10;99.90
29855;DHT22;16733;48.738;9.106;2022-11-28T05:31:25;6.00;99.90
29855;DHT22;16733;48.738;9.106;2022-11-28T05:33:53;6.10;99.90
29855;DHT22;16733;48.738;9.106;2022-11-28T05:36:18;6.10;99.90
29855;DHT22;16733;48.738;9.106;2022-11-28T05:38:44;6.10;99.90
29855;DHT22;16733;48.738;9.106;2022-11-28T05:41:27;6.10;99.90
29855;DHT22;16733;48.738;9.106;2022-11-28T05:43:55;6.10;99.90
29855;DHT22;16733;48.738;9.106;2022-11-28T05:46:21;6.10;99.90
29855;DHT22;16733;48.738;9.106;2022-11-28T05:48:46;6.10;99.90
29855;DHT22;16733;48.738;9.106;2022-11-28T05:51:12;6.10;99.90
29855;DHT22;16733;48.738;9.106;2022-11-28T05:53:37;6.10;99.90
29855;DHT22;16733;48.738;9.106;2022-11-28T05:56:21;6.10;99.90
29855;DHT22;16733;48.738;9.106;2022-11-28T05:58:51;6.00;99.90
29855;DHT22;16733;48.738;9.106;2022-11-28T06:01:19;6.10;99.90
29855;DHT22;16733;48.738;9.106;2022-11-28T06:03:45;6.00;99.90
29855;DHT22;16733;48.738;9.106;2022-11-28T06:06:21;6.10;99.90
29855;DHT22;16733;48.738;9.106;2022-11-28T06:08:48;6.00;99.90
29855;DHT22;16733;48.738;9.106;2022-11-28T06:11:15;6.10;99.90
29855;DHT22;16733;48.738;9.106;2022-11-28T06:13:42;6.10;99.90
29855;DHT22;16733;48.738;9.106;2022-11-28T06:16:10;6.10;99.90
29855;DHT22;16733;48.738;9.106;2022-11-28T06:18:37;6.10;99.90
29855;DHT22;16733;48.738;9.106;2022-11-28T06:21:03;6.10;99.90
29855;DHT22;16733;48.738;9.106;2022-11-28T06:23:29;6.20;99.90
29855;DHT22;16733;48.738;9.106;2022-11-28T06:25:55;6.20;99.90
29855;DHT22;16733;48.738;9.106;2022-11-28T06:28:21;6.20;99.90
29855;DHT22;16733;48.738;9.106;2022-11-28T06:30:47;6.30;99.90
29855;DHT22;16733;48.738;9.106;2022-11-28T06:33:12;6.30;99.90
29855;DHT22;16733;48.738;9.106;2022-11-28T06:35:38;6.30;99.90
29855;DHT22;16733;48.738;9.106;2022-11-28T06:38:04;6.30;99.90
29855;DHT22;16733;48.738;9.106;2022-11-28T06:40:29;6.40;99.90
29855;DHT22;16733;48.738;9.106;2022-11-28T06:42:55;6.40;99.90
29855;DHT22;16733;48.738;9.106;2022-11-28T06:45:20;6.40;99.90
29855;DHT22;16733;48.738;9.106;2022-11-28T06:47:46;6.40;99.90
29855;DHT22;16733;48.738;9.106;2022-11-28T06:50:12;6.40;99.90
29855;DHT22;16733;48.738;9.106;2022-11-28T06:52:38;6.50;99.90
29855;DHT22;16733;48.738;9.106;2022-11-28T06:55:04;6.50;99.90
29855;DHT22;16733;48.738;9.106;2022-11-28T06:57:30;6.50;99.90
29855;DHT22;16733;48.738;9.106;2022-11-28T06:59:57;6.40;99.90
29855;DHT22;16733;48.738;9.106;2022-11-28T07:02:22;6.40;99.90
29855;DHT22;16733;48.738;9.106;2022-11-28T07:04:49;6.40;99.90
29855;DHT22;16733;48.738;9.106;2022-11-28T07:07:15;6.40;99.90
29855;DHT22;16733;48.738;9.106;2022-11-28T07:09:40;6.40;99.90
29855;DHT22;16733;48.738;9.106;2022-11-28T07:12:06;6.40;99.90
29855;DHT22;16733;48.738;9.106;2022-11-28T07:14:32;6.40;99.90
29855;DHT22;16733;48.738;9.106;2022-11-28T07:16:58;6.40;99.90
29855;DHT22;16733;48.738;9.106;2022-11-28T07:19:23;6.30;99.90
29855;DHT22;16733;48.738;9.106;2022-11-28T07:21:49;6.30;99.90
29855;DHT22;16733;48.738;9.106;2022-11-28T07:24:16;6.40;99.90
29855;DHT22;16733;48.738;9.106;2022-11-28T07:26:43;6.40;99.90
29855;DHT22;16733;48.738;9.106;2022-11-28T07:29:13;6.40;99.90
29855;DHT22;16733;48.738;9.106;2022-11-28T07:31:39;6.40;99.90
29855;DHT22;16733;48.738;9.106;2022-11-28T07:34:05;6.40;99.90
29855;DHT22;16733;48.738;9.106;2022-11-28T07:36:31;6.50;99.90
29855;DHT22;16733;48.738;9.106;2022-11-28T07:39:00;6.50;99.90
29855;DHT22;16733;48.738;9.106;2022-11-28T07:41:27;6.50;99.90
29855;DHT22;16733;48.738;9.106;2022-11-28T07:43:58;6.50;99.90
29855;DHT22;16733;48.738;9.106;2022-11-28T07:46:24;6.50;99.90
29855;DHT22;16733;48.738;9.106;2022-11-28T07:48:51;6.50;99.90
29855;DHT22;16733;48.738;9.106;2022-11-28T07:51:22;6.60;99.90
29855;DHT22;16733;48.738;9.106;2022-11-28T07:53:48;6.60;99.90
29855;DHT22;16733;48.738;9.106;2022-11-28T07:56:35;6.60;99.90
29855;DHT22;16733;48.738;9.106;2022-11-28T07:59:01;6.70;99.90
29855;DHT22;16733;48.738;9.106;2022-11-28T08:01:30;6.70;99.90
29855;DHT22;16733;48.738;9.106;2022-11-28T08:03:57;6.70;99.90
29855;DHT22;16733;48.738;9.106;2022-11-28T08:06:26;6.80;99.90
29855;DHT22;16733;48.738;9.106;2022-11-28T08:08:52;6.80;99.90
29855;DHT22;16733;48.738;9.106;2022-11-28T08:11:20;6.80;99.90
29855;DHT22;16733;48.738;9.106;2022-11-28T08:13:46;6.80;99.90
29855;DHT22;16733;48.738;9.106;2022-11-28T08:16:18;6.80;99.90
29855;DHT22;16733;48.738;9.106;2022-11-28T08:18:44;6.90;99.90
29855;DHT22;16733;48.738;9.106;2022-11-28T08:21:28;7.00;99.90
29855;DHT22;16733;48.738;9.106;2022-11-28T08:23:56;7.00;99.90
29855;DHT22;16733;48.738;9.106;2022-11-28T08:26:24;7.10;99.90
29855;DHT22;16733;48.738;9.106;2022-11-28T08:28:50;7.10;99.90
29855;DHT22;16733;48.738;9.106;2022-11-28T08:31:23;7.20;99.90
29855;DHT22;16733;48.738;9.106;2022-11-28T08:33:51;7.20;99.90
29855;DHT22;16733;48.738;9.106;2022-11-28T08:36:18;7.20;99.90
29855;DHT22;16733;48.738;9.106;2022-11-28T08:38:45;7.20;99.90
29855;DHT22;16733;48.738;9.106;2022-11-28T08:41:13;7.30;99.90
29855;DHT22;16733;48.738;9.106;2022-11-28T08:43:39;7.30;99.90
29855;DHT22;16733;48.738;9.106;2022-11-28T08:46:10;7.40;99.90
29855;DHT22;16733;48.738;9.106;2022-11-28T08:48:37;7.40;99.90
29855;DHT22;16733;48.738;9.106;2022-11-28T08:51:03;7.40;99.90
29855;DHT22;16733;48.738;9.106;2022-11-28T08:53:29;7.50;99.90
29855;DHT22;16733;48.738;9.106;2022-11-28T08:55:55;7.50;99.90
29855;DHT22;16733;48.738;9.106;2022-11-28T08:58:20;7.60;99.90
29855;DHT22;16733;48.738;9.106;2022-11-28T09:00:46;7.60;99.90
29855;DHT22;16733;48.738;9.106;2022-11-28T09:03:14;7.70;99.90
29855;DHT22;16733;48.738;9.106;2022-11-28T09:05:41;7.70;99.90
29855;DHT22;16733;48.738;9.106;2022-11-28T09:08:07;7.80;99.90
29855;DHT22;16733;48.738;9.106;2022-11-28T09:10:35;7.90;99.90
29855;DHT22;16733;48.738;9.106;2022-11-28T09:13:01;7.90;99.90
29855;DHT22;16733;48.738;9.106;2022-11-28T09:15:31;8.00;99.90
29855;DHT22;16733;48.738;9.106;2022-11-28T09:17:57;8.00;99.90
29855;DHT22;16733;48.738;9.106;2022-11-28T09:20:22;8.10;99.90
29855;DHT22;16733;48.738;9.106;2022-11-28T09:22:48;8.10;99.90
29855;DHT22;16733;48.738;9.106;2022-11-28T09:25:14;8.10;99.90
29855;DHT22;16733;48.738;9.106;2022-11-28T09:27:39;8.10;99.90
29855;DHT22;16733;48.738;9.106;2022-11-28T09:30:06;8.10;99.90
29855;DHT22;16733;48.738;9.106;2022-11-28T09:32:33;8.20;99.90
29855;DHT22;16733;48.738;9.106;2022-11-28T09:34:58;8.20;99.90
29855;DHT22;16733;48.738;9.106;2022-11-28T09:37:25;8.30;99.90
29855;DHT22;16733;48.738;9.106;2022-11-28T09:39:51;8.30;99.90
29855;DHT22;16733;48.738;9.106;2022-11-28T09:42:39;8.40;99.90
29855;DHT22;16733;48.738;9.106;2022-11-28T09:45:16;8.40;99.90
29855;DHT22;16733;48.738;9.106;2022-11-28T09:47:46;8.40;99.90
29855;DHT22;16733;48.738;9.106;2022-11-28T09:50:18;8.40;99.90
29855;DHT22;16733;48.738;9.106;2022-11-28T09:55:52;8.40;99.90
29855;DHT22;16733;48.738;9.106;2022-11-28T10:03:50;8.50;99.90
29855;DHT22;16733;48.738;9.106;2022-11-28T10:19:55;8.70;99.90
29855;DHT22;16733;48.738;9.106;2022-11-28T10:22:39;8.70;99.90
29855;DHT22;16733;48.738;9.106;2022-11-28T10:25:19;8.70;99.90
29855;DHT22;16733;48.738;9.106;2022-11-28T10:27:48;8.80;99.90
29855;DHT22;16733;48.738;9.106;2022-11-28T10:30:27;8.80;99.90
29855;DHT22;16733;48.738;9.106;2022-11-28T10:33:16;8.80;99.90
29855;DHT22;16733;48.738;9.106;2022-11-28T10:35:47;8.90;99.90
29855;DHT22;16733;48.738;9.106;2022-11-28T10:38:15;8.90;99.90
29855;DHT22;16733;48.738;9.106;2022-11-28T10:43:46;8.90;99.90
29855;DHT22;16733;48.738;9.106;2022-11-28T10:46:42;8.90;99.90
29855;DHT22;16733;48.738;9.106;2022-11-28T10:54:41;8.80;99.90
29855;DHT22;16733;48.738;9.106;2022-11-28T11:02:45;8.70;99.90
29855;DHT22;16733;48.738;9.106;2022-11-28T11:05:26;8.70;99.90
29855;DHT22;16733;48.738;9.106;2022-11-28T11:13:30;8.80;99.90
29855;DHT22;16733;48.738;9.106;2022-11-28T11:16:04;8.90;99.90
29855;DHT22;16733;48.738;9.106;2022-11-28T11:18:34;8.90;99.90
29855;DHT22;16733;48.738;9.106;2022-11-28T11:21:21;8.90;99.90
29855;DHT22;16733;48.738;9.106;2022-11-28T11:23:48;8.90;99.90
29855;DHT22;16733;48.738;9.106;2022-11-28T11:26:40;8.80;99.90
29855;DHT22;16733;48.738;9.106;2022-11-28T11:29:22;8.70;99.90
29855;DHT22;16733;48.738;9.106;2022-11-28T11:31:52;8.70;99.90
29855;DHT22;16733;48.738;9.106;2022-11-28T11:34:20;8.70;99.90
29855;DHT22;16733;48.738;9.106;2022-11-28T11:36:47;8.60;99.90
29855;DHT22;16733;48.738;9.106;2022-11-28T11:39:15;8.60;99.90
29855;DHT22;16733;48.738;9.106;2022-11-28T11:42:31;8.60;99.90
29855;DHT22;16733;48.738;9.106;2022-11-28T11:44:37;8.50;99.90
29855;DHT22;16733;48.738;9.106;2022-11-28T11:47:07;8.50;99.90
29855;DHT22;16733;48.738;9.106;2022-11-28T11:49:34;8.60;99.90
29855;DHT22;16733;48.738;9.106;2022-11-28T11:52:24;8.60;99.90
29855;DHT22;16733;48.738;9.106;2022-11-28T12:00:06;8.60;99.90
29855;DHT22;16733;48.738;9.106;2022-11-28T12:10:26;8.50;99.90
29855;DHT22;16733;48.738;9.106;2022-11-28T12:12:52;8.40;99.90
29855;DHT22;16733;48.738;9.106;2022-11-28T12:27:04;8.40;99.90
29855;DHT22;16733;48.738;9.106;2022-11-28T12:45:42;8.60;99.90
29855;DHT22;16733;48.738;9.106;2022-11-28T12:48:15;8.60;99.90
29855;DHT22;16733;48.738;9.106;2022-11-28T12:50:51;8.60;99.90
29855;DHT22;16733;48.738;9.106;2022-11-28T12:54:21;8.60;99.90
29855;DHT22;16733;48.738;9.106;2022-11-28T13:12:19;8.60;99.90
29855;DHT22;16733;48.738;9.106;2022-11-28T13:14:53;8.70;99.90
29855;DHT22;16733;48.738;9.106;2022-11-28T13:20:11;8.70;99.90
29855;DHT22;16733;48.738;9.106;2022-11-28T13:23:10;8.80;99.90
29855;DHT22;16733;48.738;9.106;2022-11-28T13:28:45;8.90;99.90
29855;DHT22;16733;48.738;9.106;2022-11-28T13:31:33;8.90;99.90
29855;DHT22;16733;48.738;9.106;2022-11-28T13:34:02;8.90;99.90
29855;DHT22;16733;48.738;9.106;2022-11-28T13:42:22;8.90;99.90
29855;DHT22;16733;48.738;9.106;2022-11-28T13:45:35;8.90;99.90
29855;DHT22;16733;48.738;9.106;2022-11-28T13:53:40;9.00;99.90
29855;DHT22;16733;48.738;9.106;2022-11-28T13:58:48;8.90;99.90
29855;DHT22;16733;48.738;9.106;2022-11-28T14:01:17;8.90;99.90
29855;DHT22;16733;48.738;9.106;2022-11-28T14:03:47;8.90;99.90
29855;DHT22;16733;48.738;9.106;2022-11-28T14:06:20;8.90;99.90
29855;DHT22;16733;48.738;9.106;2022-11-28T14:08:57;8.80;99.90
29855;DHT22;16733;48.738;9.106;2022-11-28T14:17:22;8.80;99.90
29855;DHT22;16733;48.738;9.106;2022-11-28T14:20:23;8.90;99.90
29855;DHT22;16733;48.738;9.106;2022-11-28T14:25:46;9.00;99.90
29855;DHT22;16733;48.738;9.106;2022-11-28T14:31:23;9.00;99.90
29855;DHT22;16733;48.738;9.106;2022-11-28T14:34:05;9.00;99.90
29855;DHT22;16733;48.738;9.106;2022-11-28T14:36:33;9.00;99.90
29855;DHT22;16733;48.738;9.106;2022-11-28T14:39:06;9.00;99.90
29855;DHT22;16733;48.738;9.106;2022-11-28T14:47:27;9.00;99.90
29855;DHT22;16733;48.738;9.106;2022-11-28T14:52:31;8.80;99.90
29855;DHT22;16733;48.738;9.106;2022-11-28T14:54:58;8.80;99.90
29855;DHT22;16733;48.738;9.106;2022-11-28T14:57:32;8.80;99.90
29855;DHT22;16733;48.738;9.106;2022-11-28T15:02:47;8.70;99.90
29855;DHT22;16733;48.738;9.106;2022-11-28T15:05:45;8.70;99.90
29855;DHT22;16733;48.738;9.106;2022-11-28T15:10:40;8.60;99.90
29855;DHT22;16733;48.738;9.106;2022-11-28T15:16:13;8.60;99.90
29855;DHT22;16733;48.738;9.106;2022-11-28T15:18:52;8.60;99.90
29855;DHT22;16733;48.738;9.106;2022-11-28T15:21:19;8.60;99.90
29855;DHT22;16733;48.738;9.106;2022-11-28T15:23:45;8.50;99.90
29855;DHT22;16733;48.738;9.106;2022-11-28T15:26:29;8.50;99.90
29855;DHT22;16733;48.738;9.106;2022-11-28T15:29:21;8.50;99.90
29855;DHT22;16733;48.738;9.106;2022-11-28T15:31:49;8.40;99.90
29855;DHT22;16733;48.738;9.106;2022-11-28T15:34:30;8.40;99.90
29855;DHT22;16733;48.738;9.106;2022-11-28T15:36:59;8.40;99.90
29855;DHT22;16733;48.738;9.106;2022-11-28T15:41:55;8.30;99.90
29855;DHT22;16733;48.738;9.106;2022-11-28T15:44:21;8.30;99.90
29855;DHT22;16733;48.738;9.106;2022-11-28T15:46:47;8.30;99.90
29855;DHT22;16733;48.738;9.106;2022-11-28T15:49:34;8.30;99.90
29855;DHT22;16733;48.738;9.106;2022-11-28T15:52:03;8.20;99.90
29855;DHT22;16733;48.738;9.106;2022-11-28T15:54:36;8.20;99.90
29855;DHT22;16733;48.738;9.106;2022-11-28T15:57:04;8.20;99.90
29855;DHT22;16733;48.738;9.106;2022-11-28T15:59:30;8.10;99.90
29855;DHT22;16733;48.738;9.106;2022-11-28T16:02:00;8.10;99.90
29855;DHT22;16733;48.738;9.106;2022-11-28T16:04:27;8.10;99.90
29855;DHT22;16733;48.738;9.106;2022-11-28T16:06:56;8.00;99.90
29855;DHT22;16733;48.738;9.106;2022-11-28T16:09:30;8.00;99.90
29855;DHT22;16733;48.738;9.106;2022-11-28T16:11:58;7.90;99.90
29855;DHT22;16733;48.738;9.106;2022-11-28T16:14:30;7.90;99.90
29855;DHT22;16733;48.738;9.106;2022-11-28T16:16:57;7.90;99.90
29855;DHT22;16733;48.738;9.106;2022-11-28T16:19:27;7.90;99.90
29855;DHT22;16733;48.738;9.106;2022-11-28T16:22:05;7.90;99.90
29855;DHT22;16733;48.738;9.106;2022-11-28T16:24:42;7.80;99.90
29855;DHT22;16733;48.738;9.106;2022-11-28T16:29:59;7.80;99.90
29855;DHT22;16733;48.738;9.106;2022-11-28T16:32:40;7.70;99.90
29855;DHT22;16733;48.738;9.106;2022-11-28T16:35:11;7.70;99.90
29855;DHT22;16733;48.738;9.106;2022-11-28T16:37:37;7.70;99.90
29855;DHT22;16733;48.738;9.106;2022-11-28T16:42:29;7.60;99.90
29855;DHT22;16733;48.738;9.106;2022-11-28T16:44:55;7.70;99.90
29855;DHT22;16733;48.738;9.106;2022-11-28T16:47:29;7.60;99.90
29855;DHT22;16733;48.738;9.106;2022-11-28T16:50:15;7.60;99.90
29855;DHT22;16733;48.738;9.106;2022-11-28T16:55:42;7.60;99.90
29855;DHT22;16733;48.738;9.106;2022-11-28T16:58:20;7.70;99.90
29855;DHT22;16733;48.738;9.106;2022-11-28T17:00:56;7.60;99.90
29855;DHT22;16733;48.738;9.106;2022-11-28T17:03:41;7.70;99.90
29855;DHT22;16733;48.738;9.106;2022-11-28T17:06:15;7.70;99.90
29855;DHT22;16733;48.738;9.106;2022-11-28T17:08:41;7.60;99.90
29855;DHT22;16733;48.738;9.106;2022-11-28T17:11:07;7.60;99.90
29855;DHT22;16733;48.738;9.106;2022-11-28T17:13:33;7.60;99.90
29855;DHT22;16733;48.738;9.106;2022-11-28T17:15:58;7.60;99.90
29855;DHT22;16733;48.738;9.106;2022-11-28T17:18:24;7.60;99.90
29855;DHT22;16733;48.738;9.106;2022-11-28T17:20:50;7.60;99.90
29855;DHT22;16733;48.738;9.106;2022-11-28T17:23:16;7.60;99.90
29855;DHT22;16733;48.738;9.106;2022-11-28T17:25:49;7.60;99.90
29855;DHT22;16733;48.738;9.106;2022-11-28T17:28:15;7.70;99.90
29855;DHT22;16733;48.738;9.106;2022-11-28T17:30:40;7.70;99.90
29855;DHT22;16733;48.738;9.106;2022-11-28T17:33:06;7.70;99.90
29855;DHT22;16733;48.738;9.106;2022-11-28T17:35:36;7.60;99.90
29855;DHT22;16733;48.738;9.106;2022-11-28T17:38:05;7.60;99.90
29855;DHT22;16733;48.738;9.106;2022-11-28T17:40:30;7.60;99.90
29855;DHT22;16733;48.738;9.106;2022-11-28T17:43:00;7.60;99.90
29855;DHT22;16733;48.738;9.106;2022-11-28T17:45:28;7.60;99.90
29855;DHT22;16733;48.738;9.106;2022-11-28T17:47:54;7.60;99.90
29855;DHT22;16733;48.738;9.106;2022-11-28T17:50:20;7.70;99.90
29855;DHT22;16733;48.738;9.106;2022-11-28T17:52:45;7.60;99.90
29855;DHT22;16733;48.738;9.106;2022-11-28T17:55:11;7.60;99.90
29855;DHT22;16733;48.738;9.106;2022-11-28T17:57:37;7.60;99.90
29855;DHT22;16733;48.738;9.106;2022-11-28T18:00:07;7.50;99.90
29855;DHT22;16733;48.738;9.106;2022-11-28T18:02:33;7.50;99.90
29855;DHT22;16733;48.738;9.106;2022-11-28T18:04:59;7.50;99.90
29855;DHT22;16733;48.738;9.106;2022-11-28T18:07:25;7.40;99.90
29855;DHT22;16733;48.738;9.106;2022-11-28T18:09:50;7.40;99.90
29855;DHT22;16733;48.738;9.106;2022-11-28T18:12:16;7.40;99.90
29855;DHT22;16733;48.738;9.106;2022-11-28T18:14:41;7.40;99.90
29855;DHT22;16733;48.738;9.106;2022-11-28T18:17:07;7.40;99.90
29855;DHT22;16733;48.738;9.106;2022-11-28T18:19:32;7.40;99.90
29855;DHT22;16733;48.738;9.106;2022-11-28T18:21:58;7.40;99.90
29855;DHT22;16733;48.738;9.106;2022-11-28T18:24:24;7.40;99.90
29855;DHT22;16733;48.738;9.106;2022-11-28T18:26:49;7.50;99.90
29855;DHT22;16733;48.738;9.106;2022-11-28T18:29:15;7.50;99.90
29855;DHT22;16733;48.738;9.106;2022-11-28T18:31:41;7.50;99.90
29855;DHT22;16733;48.738;9.106;2022-11-28T18:34:07;7.50;99.90
29855;DHT22;16733;48.738;9.106;2022-11-28T18:36:35;7.40;99.90
29855;DHT22;16733;48.738;9.106;2022-11-28T18:39:04;7.50;99.90
29855;DHT22;16733;48.738;9.106;2022-11-28T18:41:30;7.50;99.90
29855;DHT22;16733;48.738;9.106;2022-11-28T18:43:58;7.50;99.90
29855;DHT22;16733;48.738;9.106;2022-11-28T18:46:24;7.50;99.90
29855;DHT22;16733;48.738;9.106;2022-11-28T18:48:50;7.50;99.90
29855;DHT22;16733;48.738;9.106;2022-11-28T18:51:21;7.50;99.90
29855;DHT22;16733;48.738;9.106;2022-11-28T18:53:48;7.50;99.90
29855;DHT22;16733;48.738;9.106;2022-11-28T18:56:15;7.40;99.90
29855;DHT22;16733;48.738;9.106;2022-11-28T18:58:43;7.40;99.90
29855;DHT22;16733;48.738;9.106;2022-11-28T19:01:15;7.40;99.90
29855;DHT22;16733;48.738;9.106;2022-11-28T19:03:41;7.40;99.90
29855;DHT22;16733;48.738;9.106;2022-11-28T19:06:09;7.40;99.90
29855;DHT22;16733;48.738;9.106;2022-11-28T19:08:35;7.40;99.90
29855;DHT22;16733;48.738;9.106;2022-11-28T19:11:02;7.40;99.90
29855;DHT22;16733;48.738;9.106;2022-11-28T19:13:28;7.40;99.90
29855;DHT22;16733;48.738;9.106;2022-11-28T19:15:54;7.40;99.90
29855;DHT22;16733;48.738;9.106;2022-11-28T19:18:19;7.40;99.90
29855;DHT22;16733;48.738;9.106;2022-11-28T19:20:45;7.40;99.90
29855;DHT22;16733;48.738;9.106;2022-11-28T19:23:11;7.40;99.90
29855;DHT22;16733;48.738;9.106;2022-11-28T19:25:36;7.40;99.90
29855;DHT22;16733;48.738;9.106;2022-11-28T19:28:02;7.30;99.90
29855;DHT22;16733;48.738;9.106;2022-11-28T19:30:31;7.30;99.90
29855;DHT22;16733;48.738;9.106;2022-11-28T19:32:56;7.30;99.90
29855;DHT22;16733;48.738;9.106;2022-11-28T19:35:22;7.30;99.90
29855;DHT22;16733;48.738;9.106;2022-11-28T19:37:47;7.30;99.90
29855;DHT22;16733;48.738;9.106;2022-11-28T19:40:13;7.20;99.90
29855;DHT22;16733;48.738;9.106;2022-11-28T19:42:39;7.20;99.90
29855;DHT22;16733;48.738;9.106;2022-11-28T19:45:04;7.20;99.90
29855;DHT22;16733;48.738;9.106;2022-11-28T19:47:30;7.20;99.90
29855;DHT22;16733;48.738;9.106;2022-11-28T19:49:56;7.20;99.90